Time;durP1;ratioP1;P1;durP2;ratioP2;P2;SDS_P1;SDS_P2;PMS_P1;PMS_P2;Temp;Humidity;BMP_temperature;BMP_pressure;BME280_temperature;BME280_humidity;BME280_pressure;Samples;Min_cycle;Max_cycle;Signal;HPM_P1;HPM_P2
2022/04/08 00:00:50;;;;;;;;;0.00;0.00;;;;;12.57;45.45;100347.19;2444318;27;46297;-87
2022/04/08 00:02:01;;;;;;;;;0.00;0.00;;;;;12.54;45.51;100342.09;2447966;28;45261;-87
2022/04/08 00:03:11;;;;;;;;;2.50;0.00;;;;;12.52;45.89;100350.03;2440624;28;45363;-89
2022/04/08 00:04:21;;;;;;;;;1.00;0.00;;;;;12.52;46.27;100343.94;2440650;28;45360;-90
2022/04/08 00:05:32;;;;;;;;;0.00;0.00;;;;;12.49;46.74;100344.94;2440694;28;45516;-88
2022/04/08 00:06:42;;;;;;;;;0.50;0.00;;;;;12.49;46.20;100337.03;2441576;28;45141;-88
2022/04/08 00:07:52;;;;;;;;;0.00;0.00;;;;;12.50;45.67;100346.63;2441880;28;47268;-91
2022/04/08 00:09:03;;;;;;;;;0.00;0.00;;;;;12.49;46.08;100347.56;2444382;28;45198;-90
2022/04/08 00:10:13;;;;;;;;;0.75;0.50;;;;;12.49;46.37;100348.41;2441804;27;45248;-88
2022/04/08 00:11:24;;;;;;;;;3.00;0.00;;;;;12.51;46.95;100347.50;2451287;27;45144;-88
2022/04/08 00:12:34;;;;;;;;;0.00;0.00;;;;;12.49;46.28;100342.31;2441799;27;46438;-87
2022/04/08 00:13:44;;;;;;;;;0.00;0.00;;;;;12.50;46.08;100336.09;2444010;28;45153;-87
2022/04/08 00:14:55;;;;;;;;;1.00;0.00;;;;;12.50;46.30;100338.72;2440750;28;47198;-89
2022/04/08 00:16:09;;;;;;;;;0.50;0.00;;;;;12.53;46.33;100343.00;2448094;27;44633;-89
2022/04/08 00:17:20;;;;;;;;;0.00;0.00;;;;;12.53;46.49;100345.63;2441091;28;45567;-88
2022/04/08 00:18:30;;;;;;;;;0.00;0.00;;;;;12.55;46.37;100344.63;2447447;28;45421;-88
2022/04/08 00:19:40;;;;;;;;;0.00;0.00;;;;;12.54;46.41;100348.22;2448000;27;45419;-88
2022/04/08 00:20:51;;;;;;;;;2.00;0.00;;;;;12.55;46.02;100346.41;2441334;28;44821;-87
2022/04/08 00:22:01;;;;;;;;;4.50;0.50;;;;;12.54;46.14;100337.69;2441122;28;46313;-88
2022/04/08 00:23:12;;;;;;;;;0.00;0.00;;;;;12.57;46.36;100331.38;2440512;28;44728;-89
2022/04/08 00:24:23;;;;;;;;;3.25;0.00;;;;;12.59;46.30;100330.38;2445839;28;45448;-88
2022/04/08 00:25:33;;;;;;;;;0.00;0.00;;;;;12.60;46.61;100324.19;2451282;27;45214;-88
2022/04/08 00:26:47;;;;;;;;;0.00;0.00;;;;;12.64;46.97;100326.69;2443014;27;45547;-88
2022/04/08 00:27:58;;;;;;;;;0.00;0.00;;;;;12.64;46.49;100326.69;2444883;28;45476;-92
2022/04/08 00:29:08;;;;;;;;;0.50;0.00;;;;;12.64;46.54;100332.81;2433465;28;46963;-86
2022/04/08 00:30:19;;;;;;;;;0.75;0.00;;;;;12.64;46.14;100327.53;2441121;28;45433;-86
2022/04/08 00:31:29;;;;;;;;;1.00;1.00;;;;;12.66;46.39;100333.59;2441118;28;45326;-87
2022/04/08 00:32:39;;;;;;;;;0.50;0.50;;;;;12.68;46.60;100325.59;2445862;28;45215;-89
2022/04/08 00:33:49;;;;;;;;;0.00;0.00;;;;;12.67;46.42;100324.72;2449755;27;45492;-83
2022/04/08 00:35:00;;;;;;;;;0.50;0.00;;;;;12.68;46.08;100328.22;2441230;28;45307;-83
2022/04/08 00:36:10;;;;;;;;;0.00;0.00;;;;;12.69;46.26;100322.03;2448054;28;45664;-83
2022/04/08 00:37:21;;;;;;;;;1.00;1.00;;;;;12.68;46.25;100317.69;2444731;28;45224;-83
2022/04/08 00:38:32;;;;;;;;;0.00;0.00;;;;;12.70;46.44;100323.72;2450104;27;45166;-83
2022/04/08 00:39:43;;;;;;;;;0.00;0.00;;;;;12.71;46.43;100322.81;2446613;28;45443;-84
2022/04/08 00:40:53;;;;;;;;;1.50;0.00;;;;;12.71;46.72;100320.19;2441077;28;45226;-85
2022/04/08 00:42:06;;;;;;;;;0.25;0.00;;;;;12.72;46.85;100319.22;2441207;28;45208;-86
2022/04/08 00:43:19;;;;;;;;;2.00;0.00;;;;;12.74;47.05;100324.44;2442146;28;45373;-86
2022/04/08 00:44:31;;;;;;;;;0.00;0.00;;;;;12.74;46.54;100321.81;2441193;28;45420;-86
2022/04/08 00:45:41;;;;;;;;;1.50;0.00;;;;;12.76;47.05;100315.53;2440924;28;45535;-85
2022/04/08 00:46:52;;;;;;;;;2.25;0.25;;;;;12.75;46.84;100319.09;2445200;28;44779;-85
2022/04/08 00:48:07;;;;;;;;;0.00;0.00;;;;;12.78;46.79;100316.31;2440086;28;47193;-88
2022/04/08 00:49:17;;;;;;;;;2.25;0.00;;;;;12.79;46.62;100309.25;2448825;28;45330;-88
2022/04/08 00:50:27;;;;;;;;;0.25;0.25;;;;;12.78;46.73;100308.41;2450695;27;45506;-87
2022/04/08 00:51:39;;;;;;;;;1.00;0.00;;;;;12.82;46.64;100323.13;2450961;27;45287;-88
2022/04/08 00:52:50;;;;;;;;;1.00;0.00;;;;;12.83;46.28;100316.94;2451864;27;45496;-89
2022/04/08 00:54:02;;;;;;;;;1.00;1.00;;;;;12.85;46.09;100313.34;2445945;27;45442;-90
2022/04/08 00:55:12;;;;;;;;;2.00;0.00;;;;;12.85;46.66;100318.63;2445188;28;48008;-88
2022/04/08 00:56:23;;;;;;;;;0.00;0.00;;;;;12.83;46.29;100313.44;2452313;28;44701;-88
2022/04/08 00:57:34;;;;;;;;;1.75;0.00;;;;;12.82;46.43;100307.31;2443116;27;45299;-89
2022/04/08 00:58:44;;;;;;;;;1.75;0.25;;;;;12.85;46.63;100313.34;2442721;28;45221;-89
2022/04/08 00:59:55;;;;;;;;;0.00;0.00;;;;;12.84;46.31;100309.84;2442609;28;46113;-89
2022/04/08 01:01:05;;;;;;;;;0.25;0.00;;;;;12.85;46.60;100308.06;2442167;28;45267;-90
2022/04/08 01:02:16;;;;;;;;;0.75;0.00;;;;;12.82;46.51;100307.31;2446961;28;45496;-88
2022/04/08 01:03:26;;;;;;;;;0.25;0.25;;;;;12.85;46.42;100308.94;2455425;27;45452;-88
2022/04/08 01:04:36;;;;;;;;;0.00;0.00;;;;;12.81;47.05;100302.97;2449364;28;46203;-88
2022/04/08 01:05:47;;;;;;;;;0.00;0.00;;;;;12.82;46.68;100303.81;2451510;28;45476;-88
2022/04/08 01:06:57;;;;;;;;;0.00;0.00;;;;;12.82;46.53;100299.41;2452399;27;45459;-88
2022/04/08 01:08:12;;;;;;;;;1.50;0.00;;;;;12.85;46.61;100300.16;2449834;28;44754;-88
2022/04/08 01:09:22;;;;;;;;;0.25;0.25;;;;;12.83;46.42;100298.47;2435431;28;48321;-88
2022/04/08 01:10:33;;;;;;;;;0.00;0.00;;;;;12.83;47.17;100303.75;2447779;28;44848;-90
2022/04/08 01:11:43;;;;;;;;;0.75;0.75;;;;;12.82;46.56;100296.75;2446584;28;46075;-90
2022/04/08 01:12:54;;;;;;;;;0.25;0.00;;;;;12.82;46.46;100288.84;2445467;27;45291;-86
2022/04/08 01:14:09;;;;;;;;;0.25;0.25;;;;;12.83;46.75;100294.97;2441820;28;47240;-85
2022/04/08 01:15:21;;;;;;;;;0.00;0.00;;;;;12.85;47.06;100292.25;2448893;28;45455;-85
2022/04/08 01:16:31;;;;;;;;;0.00;0.00;;;;;12.82;47.32;100293.25;2451215;28;47144;-85
2022/04/08 01:17:42;;;;;;;;;2.00;0.00;;;;;12.83;47.46;100297.63;2449072;28;45274;-85
2022/04/08 01:18:52;;;;;;;;;0.00;0.00;;;;;12.83;47.12;100301.13;2451842;28;46170;-86
2022/04/08 01:20:03;;;;;;;;;1.75;0.00;;;;;12.81;47.26;100292.44;2451569;28;45381;-86
2022/04/08 01:21:14;;;;;;;;;0.25;0.00;;;;;12.82;47.22;100291.47;2450406;28;46551;-86
2022/04/08 01:22:24;;;;;;;;;0.00;0.00;;;;;12.82;47.03;100298.53;2443615;28;45149;-87
2022/04/08 01:23:36;;;;;;;;;0.75;0.00;;;;;12.82;46.89;100288.84;2450549;28;47246;-85
2022/04/08 01:24:48;;;;;;;;;2.00;0.00;;;;;12.82;46.76;100291.47;2452005;28;45313;-85
2022/04/08 01:25:59;;;;;;;;;0.00;0.00;;;;;12.80;47.10;100288.06;2452252;27;45549;-85
2022/04/08 01:27:11;;;;;;;;;1.00;0.25;;;;;12.81;47.04;100289.78;2452579;27;45450;-86
2022/04/08 01:28:25;;;;;;;;;1.00;1.00;;;;;12.80;47.06;100285.44;2452223;27;45387;-86
2022/04/08 01:29:35;;;;;;;;;0.00;0.00;;;;;12.81;47.24;100287.16;2452513;27;45342;-88
2022/04/08 01:30:46;;;;;;;;;0.50;0.00;;;;;12.79;46.96;100282.88;2444777;27;45469;-86
2022/04/08 01:31:56;;;;;;;;;0.00;0.00;;;;;12.81;46.95;100281.03;2444458;28;44551;-85
2022/04/08 01:33:06;;;;;;;;;0.00;0.00;;;;;12.80;46.72;100284.56;2441709;28;46157;-85
2022/04/08 01:34:17;;;;;;;;;0.00;0.00;;;;;12.81;47.00;100281.88;2452422;28;45202;-86
2022/04/08 01:35:27;;;;;;;;;0.00;0.00;;;;;12.78;46.74;100287.31;2452025;27;45418;-85
2022/04/08 01:36:38;;;;;;;;;0.00;0.00;;;;;12.78;46.55;100282.03;2452357;28;45155;-86
2022/04/08 01:37:49;;;;;;;;;1.00;0.00;;;;;12.77;46.98;100285.56;2450499;28;46299;-88
2022/04/08 01:38:59;;;;;;;;;1.75;1.00;;;;;12.76;46.82;100278.63;2444184;28;44806;-89
2022/04/08 01:40:10;;;;;;;;;0.25;0.25;;;;;12.75;46.84;100279.53;2444452;28;46965;-91
2022/04/08 01:41:20;;;;;;;;;0.00;0.00;;;;;12.73;46.99;100270.84;2441696;28;45468;-89
2022/04/08 01:42:31;;;;;;;;;0.00;0.00;;;;;12.73;46.65;100267.34;2441814;28;46181;-88
2022/04/08 01:43:41;;;;;;;;;0.25;0.25;;;;;12.74;46.79;100269.06;2441691;28;45192;-86
2022/04/08 01:44:53;;;;;;;;;1.00;0.00;;;;;12.73;46.95;100267.34;2441963;28;45369;-85
2022/04/08 01:46:03;;;;;;;;;1.00;0.00;;;;;12.71;47.08;100267.44;2442499;28;45219;-85
2022/04/08 01:47:14;;;;;;;;;0.00;0.00;;;;;12.71;47.25;100264.81;2442203;28;45397;-84
2022/04/08 01:48:24;;;;;;;;;3.50;0.50;;;;;12.71;47.13;100270.06;2443070;28;45266;-84
2022/04/08 01:49:34;;;;;;;;;0.50;0.00;;;;;12.71;46.98;100270.06;2442539;27;45471;-84
2022/04/08 01:50:45;;;;;;;;;2.75;1.00;;;;;12.72;47.30;100271.75;2442260;28;45469;-84
2022/04/08 01:51:56;;;;;;;;;2.25;0.00;;;;;12.70;46.74;100263.09;2442876;28;46424;-84
2022/04/08 01:53:06;;;;;;;;;0.50;0.50;;;;;12.68;46.91;100264.94;2442417;27;44632;-85
2022/04/08 01:54:17;;;;;;;;;2.50;1.00;;;;;12.65;47.26;100263.31;2441887;28;46640;-84
2022/04/08 01:55:27;;;;;;;;;0.00;0.00;;;;;12.65;47.62;100258.03;2442347;28;45334;-84
2022/04/08 01:56:37;;;;;;;;;0.25;0.00;;;;;12.66;47.61;100261.53;2442104;28;45586;-84
2022/04/08 01:57:48;;;;;;;;;0.00;0.00;;;;;12.66;47.63;100266.81;2442142;28;45374;-86
2022/04/08 01:58:58;;;;;;;;;0.50;0.00;;;;;12.67;47.70;100260.59;2446109;28;47229;-86
2022/04/08 02:00:10;;;;;;;;;0.00;0.00;;;;;12.67;47.98;100260.59;2449497;28;44775;-86
2022/04/08 02:01:20;;;;;;;;;0.50;0.00;;;;;12.66;47.71;100256.25;2452082;27;45244;-86
2022/04/08 02:02:30;;;;;;;;;0.00;0.00;;;;;12.66;47.95;100257.13;2450075;27;45394;-86
2022/04/08 02:03:41;;;;;;;;;0.00;0.00;;;;;12.67;48.00;100264.09;2451127;28;48424;-86
2022/04/08 02:04:51;;;;;;;;;0.00;0.00;;;;;12.67;48.03;100250.03;2451431;28;45407;-85
2022/04/08 02:06:01;;;;;;;;;2.00;1.00;;;;;12.66;48.06;100253.63;2451389;28;48468;-87
2022/04/08 02:07:12;;;;;;;;;1.00;0.00;;;;;12.69;48.19;100256.13;2449786;28;45399;-87
2022/04/08 02:08:22;;;;;;;;;2.00;0.00;;;;;12.67;48.39;100258.81;2449004;28;45255;-85
2022/04/08 02:09:33;;;;;;;;;1.25;0.50;;;;;12.68;47.83;100259.69;2442424;28;44779;-85
2022/04/08 02:10:44;;;;;;;;;2.25;1.00;;;;;12.67;47.66;100257.94;2446402;28;46603;-85
2022/04/08 02:11:55;;;;;;;;;1.00;0.00;;;;;12.69;47.98;100250.84;2451363;27;45257;-85
2022/04/08 02:13:05;;;;;;;;;0.00;0.00;;;;;12.67;48.29;100253.53;2451800;27;45575;-82
2022/04/08 02:14:16;;;;;;;;;1.00;1.00;;;;;12.70;48.07;100255.16;2442283;28;45267;-84
2022/04/08 02:15:31;;;;;;;;;1.25;0.00;;;;;12.69;47.79;100250.84;2442187;28;45204;-83
2022/04/08 02:16:41;;;;;;;;;0.50;0.00;;;;;12.69;48.12;100254.31;2454012;27;45410;-83
2022/04/08 02:17:52;;;;;;;;;0.00;0.00;;;;;12.70;48.29;100257.81;2441937;28;46270;-83
2022/04/08 02:19:02;;;;;;;;;1.75;0.50;;;;;12.70;48.22;100249.91;2442260;28;45421;-83
2022/04/08 02:20:13;;;;;;;;;5.00;1.00;;;;;12.69;47.90;100245.56;2446177;28;47047;-83
2022/04/08 02:21:24;;;;;;;;;0.50;0.00;;;;;12.69;48.27;100254.31;2449992;28;45188;-82
2022/04/08 02:22:35;;;;;;;;;3.25;0.25;;;;;12.71;48.25;100247.22;2450457;28;48308;-82
2022/04/08 02:23:47;;;;;;;;;1.00;0.00;;;;;12.70;48.21;100240.22;2450546;28;45247;-82
2022/04/08 02:24:58;;;;;;;;;3.25;1.00;;;;;12.74;48.42;100246.16;2450397;27;46495;-88
2022/04/08 02:26:11;;;;;;;;;0.00;0.00;;;;;12.71;48.44;100244.56;2450089;28;45456;-89
2022/04/08 02:27:23;;;;;;;;;0.50;0.50;;;;;12.70;48.57;100236.72;2443809;28;47507;-85
2022/04/08 02:28:33;;;;;;;;;3.50;0.00;;;;;12.69;48.08;100241.13;2450581;28;45267;-85
2022/04/08 02:29:44;;;;;;;;;0.75;0.75;;;;;12.70;47.86;100242.84;2450390;27;47142;-85
2022/04/08 02:30:55;;;;;;;;;1.50;1.00;;;;;12.68;47.86;100239.44;2440539;28;45294;-90
2022/04/08 02:32:06;;;;;;;;;1.00;0.00;;;;;12.70;48.00;100242.00;2441283;28;45687;-89
2022/04/08 02:33:17;;;;;;;;;0.00;0.00;;;;;12.69;48.02;100241.13;2442169;28;45500;-89
2022/04/08 02:34:27;;;;;;;;;2.00;0.00;;;;;12.70;48.47;100242.00;2444092;28;47038;-94
2022/04/08 02:35:37;;;;;;;;;0.25;0.00;;;;;12.69;48.23;100243.75;2454012;27;45235;-94
2022/04/08 02:36:50;;;;;;;;;0.75;0.00;;;;;12.69;48.71;100230.59;2448083;28;47123;-93
2022/04/08 02:38:00;;;;;;;;;3.00;1.00;;;;;12.69;48.23;100233.22;2448395;28;45193;-93
2022/04/08 02:39:11;;;;;;;;;0.00;0.00;;;;;12.69;48.30;100242.94;2451080;28;47024;-95
2022/04/08 02:40:21;;;;;;;;;1.25;0.25;;;;;12.69;47.97;100235.03;2451673;28;45223;-94
2022/04/08 02:41:32;;;;;;;;;3.00;0.00;;;;;12.67;48.16;100229.81;2441581;28;47923;-94
2022/04/08 02:42:42;;;;;;;;;0.75;0.00;;;;;12.69;48.13;100240.31;2448375;28;44620;-93
2022/04/08 02:43:52;;;;;;;;;0.50;0.00;;;;;12.68;48.31;100230.66;2451332;28;46949;-93
2022/04/08 02:45:03;;;;;;;;;1.00;0.00;;;;;12.68;48.18;100230.66;2441675;28;45223;-95
2022/04/08 02:46:13;;;;;;;;;2.00;1.00;;;;;12.71;48.12;100227.88;2443438;28;47994;-93
2022/04/08 02:47:24;;;;;;;;;0.00;0.00;;;;;12.67;48.52;100226.31;2444029;28;45223;-92
2022/04/08 02:48:35;;;;;;;;;1.00;1.00;;;;;12.68;48.49;100228.91;2443056;28;47946;-92
2022/04/08 02:49:45;;;;;;;;;2.00;0.00;;;;;12.68;48.73;100228.03;2444256;28;45264;-93
2022/04/08 02:50:55;;;;;;;;;0.50;0.50;;;;;12.68;48.35;100225.41;2443140;28;48123;-94
2022/04/08 02:52:06;;;;;;;;;0.00;0.00;;;;;12.66;48.60;100216.72;2444071;28;45303;-89
2022/04/08 02:53:17;;;;;;;;;0.00;0.00;;;;;12.68;48.69;100225.41;2441364;28;46531;-89
2022/04/08 02:54:27;;;;;;;;;0.25;0.25;;;;;12.68;48.96;100228.91;2451385;28;45503;-86
2022/04/08 02:55:38;;;;;;;;;0.00;0.00;;;;;12.70;48.85;100226.16;2451605;27;45354;-87
2022/04/08 02:56:48;;;;;;;;;2.25;0.75;;;;;12.70;48.92;100220.91;2460922;27;45228;-92
2022/04/08 02:57:59;;;;;;;;;0.00;0.00;;;;;12.69;49.07;100219.22;2450847;28;46594;-93
2022/04/08 02:59:09;;;;;;;;;0.50;0.50;;;;;12.68;49.18;100218.34;2449274;28;45335;-91
2022/04/08 03:00:20;;;;;;;;;0.00;0.00;;;;;12.69;49.14;100213.94;2445549;28;47831;-90
2022/04/08 03:01:30;;;;;;;;;2.00;1.00;;;;;12.67;49.11;100219.25;2443355;28;45197;-90
2022/04/08 03:02:41;;;;;;;;;3.00;0.00;;;;;12.67;49.18;100216.63;2451359;27;46153;-89
2022/04/08 03:03:51;;;;;;;;;1.25;0.25;;;;;12.69;49.31;100213.94;2451671;27;45206;-90
2022/04/08 03:05:06;;;;;;;;;0.75;0.00;;;;;12.67;49.21;100211.34;2451570;27;45413;-91
2022/04/08 03:06:16;;;;;;;;;0.00;0.00;;;;;12.70;48.91;100213.84;2450172;28;45207;-90
2022/04/08 03:07:27;;;;;;;;;0.00;0.00;;;;;12.71;49.41;100214.69;2441186;28;47096;-89
2022/04/08 03:08:37;;;;;;;;;1.00;1.00;;;;;12.71;49.32;100212.06;2441469;28;45320;-89
2022/04/08 03:09:48;;;;;;;;;0.75;0.00;;;;;12.68;49.07;100207.81;2442756;28;45510;-88
2022/04/08 03:10:58;;;;;;;;;1.00;0.00;;;;;12.71;49.35;100204.16;2448264;28;44625;-89
2022/04/08 03:12:09;;;;;;;;;0.00;0.00;;;;;12.70;49.36;100200.66;2444514;27;45416;-89
2022/04/08 03:13:19;;;;;;;;;0.00;0.00;;;;;12.72;49.47;100208.47;2443373;28;44717;-88
2022/04/08 03:14:31;;;;;;;;;1.50;0.00;;;;;12.69;49.27;100198.94;2441762;28;45356;-88
2022/04/08 03:15:41;;;;;;;;;3.75;0.75;;;;;12.71;49.27;100201.53;2440631;27;45407;-88
2022/04/08 03:16:51;;;;;;;;;2.00;0.00;;;;;12.71;50.10;100196.25;2450386;27;45301;-88
2022/04/08 03:18:02;;;;;;;;;3.00;0.25;;;;;12.71;49.93;100201.53;2448331;28;45208;-88
2022/04/08 03:19:12;;;;;;;;;1.00;0.00;;;;;12.72;49.50;100203.22;2441361;28;45215;-89
2022/04/08 03:20:23;;;;;;;;;4.00;0.00;;;;;12.70;49.48;100194.53;2449301;28;45251;-87
2022/04/08 03:21:34;;;;;;;;;0.00;0.00;;;;;12.73;49.80;100199.66;2444766;28;48095;-86
2022/04/08 03:22:44;;;;;;;;;1.00;1.00;;;;;12.74;49.79;100201.34;2443774;28;45211;-87
2022/04/08 03:23:55;;;;;;;;;3.75;0.00;;;;;12.74;50.55;100205.78;2449314;28;45274;-87
2022/04/08 03:25:05;;;;;;;;;0.00;0.00;;;;;12.73;50.17;100194.38;2441877;28;45192;-88
2022/04/08 03:26:16;;;;;;;;;2.00;1.00;;;;;12.71;50.45;100185.69;2441573;28;46207;-88
2022/04/08 03:27:26;;;;;;;;;1.75;1.00;;;;;12.72;50.46;100197.94;2444616;28;45269;-94
2022/04/08 03:28:36;;;;;;;;;3.25;1.00;;;;;12.71;50.72;100190.97;2448137;28;45638;-89
2022/04/08 03:29:51;;;;;;;;;1.00;1.00;;;;;12.71;50.83;100191.84;2443859;27;45434;-91
2022/04/08 03:31:01;;;;;;;;;2.00;0.00;;;;;12.71;50.84;100193.59;2445645;28;45365;-92
2022/04/08 03:32:11;;;;;;;;;0.50;0.00;;;;;12.71;51.12;100198.88;2451213;27;45361;-91
2022/04/08 03:33:22;;;;;;;;;1.00;1.00;;;;;12.71;51.42;100188.34;2451594;27;45287;-92
2022/04/08 03:34:33;;;;;;;;;1.75;1.00;;;;;12.73;51.29;100191.75;2450931;28;45241;-96
2022/04/08 03:35:43;;;;;;;;;0.00;0.00;;;;;12.73;51.74;100185.59;2443120;28;47111;-94
2022/04/08 03:36:53;;;;;;;;;1.25;0.00;;;;;12.73;51.71;100194.38;2434391;28;44589;-93
2022/04/08 03:38:04;;;;;;;;;1.00;0.75;;;;;12.73;52.25;100199.66;2441016;28;48415;-93
2022/04/08 03:39:14;;;;;;;;;0.00;0.00;;;;;12.71;52.71;100198.88;2444112;28;45229;-95
2022/04/08 03:40:25;;;;;;;;;1.00;1.00;;;;;12.70;52.69;100194.53;2443969;28;47081;-92
2022/04/08 03:41:35;;;;;;;;;0.00;0.00;;;;;12.68;52.58;100188.47;2443717;28;44642;-91
2022/04/08 03:42:45;;;;;;;;;2.00;1.00;;;;;12.68;52.84;100185.84;2440786;28;46017;-91
2022/04/08 03:43:56;;;;;;;;;1.00;0.50;;;;;12.66;52.79;100177.16;2441133;28;45192;-91
2022/04/08 03:45:07;;;;;;;;;0.25;0.25;;;;;12.67;52.96;100178.84;2442430;28;45209;-90
2022/04/08 03:46:17;;;;;;;;;2.00;1.00;;;;;12.65;53.04;100181.59;2441838;27;45406;-92
2022/04/08 03:47:27;;;;;;;;;1.50;1.00;;;;;12.65;53.66;100181.59;2441204;28;46275;-91
2022/04/08 03:48:39;;;;;;;;;4.00;1.50;;;;;12.64;53.74;100173.75;2441876;28;44777;-91
2022/04/08 03:49:50;;;;;;;;;3.00;2.00;;;;;12.62;53.73;100171.19;2441535;28;45778;-92
2022/04/08 03:51:00;;;;;;;;;0.50;0.00;;;;;12.62;53.86;100176.47;2447193;28;45299;-90
2022/04/08 03:52:10;;;;;;;;;0.25;0.25;;;;;12.59;53.56;100166.91;2440626;28;48146;-91
2022/04/08 03:53:21;;;;;;;;;1.50;0.75;;;;;12.57;53.70;100157.38;2433980;28;45334;-91
2022/04/08 03:54:31;;;;;;;;;7.75;0.00;;;;;12.57;54.10;100157.38;2433691;28;46151;-91
2022/04/08 03:55:42;;;;;;;;;1.75;0.75;;;;;12.56;54.44;100155.69;2440786;28;45321;-90
2022/04/08 03:56:52;;;;;;;;;1.00;0.00;;;;;12.55;54.44;100148.69;2440642;28;47136;-90
2022/04/08 03:58:03;;;;;;;;;1.00;0.75;;;;;12.55;54.92;100149.56;2444220;28;45220;-91
2022/04/08 03:59:13;;;;;;;;;3.25;0.75;;;;;12.52;54.68;100147.06;2442809;28;47945;-90
2022/04/08 04:00:24;;;;;;;;;1.00;0.75;;;;;12.51;55.15;100149.78;2448567;28;44907;-90
2022/04/08 04:01:34;;;;;;;;;1.00;0.75;;;;;12.49;54.73;100147.25;2451250;27;45389;-91
2022/04/08 04:02:45;;;;;;;;;1.75;0.00;;;;;12.51;54.63;100147.16;2443031;27;44567;-91
2022/04/08 04:03:56;;;;;;;;;0.75;0.75;;;;;12.48;54.67;100138.47;2446056;28;46346;-89
2022/04/08 04:05:07;;;;;;;;;0.75;0.25;;;;;12.49;55.04;100139.34;2433558;28;45192;-90
2022/04/08 04:06:17;;;;;;;;;1.75;0.75;;;;;12.44;55.04;100129.03;2440890;28;46379;-89
2022/04/08 04:07:28;;;;;;;;;2.50;0.75;;;;;12.44;55.37;100125.53;2441327;28;45286;-89
2022/04/08 04:08:38;;;;;;;;;1.00;0.75;;;;;12.44;55.37;100136.09;2440484;28;47217;-89
2022/04/08 04:09:49;;;;;;;;;0.75;0.75;;;;;12.42;55.32;100125.59;2443530;28;44681;-86
2022/04/08 04:10:59;;;;;;;;;2.50;0.75;;;;;12.41;55.47;100131.81;2446264;28;47166;-85
2022/04/08 04:12:10;;;;;;;;;2.75;0.75;;;;;12.38;55.60;100127.56;2446421;28;45302;-85
2022/04/08 04:13:20;;;;;;;;;3.50;1.75;;;;;12.37;55.74;100114.47;2446290;28;46095;-88
2022/04/08 04:14:31;;;;;;;;;1.25;0.25;;;;;12.35;55.98;100113.66;2450249;28;44767;-88
2022/04/08 04:15:41;;;;;;;;;0.75;0.75;;;;;12.32;56.11;100112.03;2450521;27;45311;-87
2022/04/08 04:16:51;;;;;;;;;0.75;0.50;;;;;12.32;56.32;100105.94;2461103;27;44684;-88
2022/04/08 04:18:03;;;;;;;;;0.75;0.75;;;;;12.32;55.66;100101.50;2443351;27;45326;-88
2022/04/08 04:19:14;;;;;;;;;0.75;0.75;;;;;12.29;56.33;100099.03;2441362;28;45207;-89
2022/04/08 04:20:24;;;;;;;;;2.75;0.75;;;;;12.31;56.43;100093.69;2441285;28;48250;-88
2022/04/08 04:21:34;;;;;;;;;0.00;0.00;;;;;12.28;56.53;100089.41;2443095;28;45630;-88
2022/04/08 04:22:45;;;;;;;;;1.75;1.75;;;;;12.27;56.56;100090.38;2440374;28;46975;-86
2022/04/08 04:23:55;;;;;;;;;1.75;1.25;;;;;12.26;56.72;100091.28;2441814;28;45211;-87
2022/04/08 04:25:06;;;;;;;;;1.75;0.75;;;;;12.24;56.85;100083.47;2450192;28;46021;-87
2022/04/08 04:26:16;;;;;;;;;1.25;0.75;;;;;12.27;56.81;100087.72;2443229;28;45177;-87
2022/04/08 04:27:27;;;;;;;;;0.75;0.75;;;;;12.26;56.94;100088.66;2447530;28;45626;-86
2022/04/08 04:28:37;;;;;;;;;1.25;1.25;;;;;12.26;57.02;100083.38;2451247;27;45230;-85
2022/04/08 04:29:47;;;;;;;;;1.75;1.00;;;;;12.22;56.94;100076.56;2447583;27;46336;-85
2022/04/08 04:31:04;;;;;;;;;0.00;0.00;;;;;12.20;57.15;100073.16;2441322;28;45227;-86
2022/04/08 04:32:17;;;;;;;;;3.00;2.00;;;;;12.18;57.25;100069.72;2439833;28;47431;-86
2022/04/08 04:33:27;;;;;;;;;1.50;1.00;;;;;12.20;57.04;100070.53;2440899;28;45169;-87
2022/04/08 04:34:38;;;;;;;;;1.50;0.50;;;;;12.17;57.59;100065.41;2440187;28;48171;-87
2022/04/08 04:35:48;;;;;;;;;3.50;0.75;;;;;12.17;57.67;100061.00;2443147;28;45564;-89
2022/04/08 04:36:59;;;;;;;;;2.00;1.00;;;;;12.17;57.40;100062.78;2441084;28;45311;-89
2022/04/08 04:38:09;;;;;;;;;1.00;1.00;;;;;12.15;57.74;100058.41;2440417;28;45214;-89
2022/04/08 04:39:19;;;;;;;;;2.00;0.25;;;;;12.16;57.79;100059.28;2440450;28;45318;-88
2022/04/08 04:40:30;;;;;;;;;3.75;2.00;;;;;12.14;57.99;100051.47;2440313;28;45221;-87
2022/04/08 04:41:40;;;;;;;;;2.00;2.00;;;;;12.13;58.12;100048.88;2440900;28;45456;-87
2022/04/08 04:42:51;;;;;;;;;3.75;1.00;;;;;12.12;57.70;100055.06;2448060;28;45332;-87
2022/04/08 04:44:01;;;;;;;;;2.00;2.00;;;;;12.10;57.65;100041.13;2452651;27;47190;-87
2022/04/08 04:45:13;;;;;;;;;1.25;1.00;;;;;12.11;57.55;100050.72;2457117;27;44762;-87
2022/04/08 04:46:24;;;;;;;;;2.75;0.50;;;;;12.09;57.82;100042.91;2448097;28;46081;-88
2022/04/08 04:47:34;;;;;;;;;2.00;1.00;;;;;12.09;58.00;100042.91;2443844;27;45258;-87
2022/04/08 04:48:45;;;;;;;;;2.00;1.00;;;;;12.07;58.49;100042.13;2441995;28;45270;-88
2022/04/08 04:49:55;;;;;;;;;1.25;1.25;;;;;12.07;58.29;100039.50;2441229;28;44577;-89
2022/04/08 04:51:05;;;;;;;;;1.50;1.50;;;;;12.07;58.22;100036.00;2441038;28;45282;-87
2022/04/08 04:52:16;;;;;;;;;3.00;2.00;;;;;12.04;58.16;100029.13;2441313;28;45162;-87
2022/04/08 04:53:26;;;;;;;;;2.00;1.50;;;;;12.06;58.42;100037.78;2441045;28;46097;-82
2022/04/08 04:54:37;;;;;;;;;3.00;1.00;;;;;12.04;58.24;100026.47;2448683;28;45366;-86
2022/04/08 04:55:48;;;;;;;;;2.00;2.00;;;;;12.02;58.36;100026.56;2445387;28;45541;-87
2022/04/08 04:56:58;;;;;;;;;1.75;1.75;;;;;12.02;58.47;100017.81;2442548;28;44715;-90
2022/04/08 04:58:08;;;;;;;;;2.00;2.00;;;;;12.00;58.61;100009.97;2449876;28;48360;-90
2022/04/08 04:59:19;;;;;;;;;2.25;1.25;;;;;12.00;58.52;100009.13;2450120;28;44765;-90
2022/04/08 05:00:29;;;;;;;;;1.50;1.50;;;;;12.01;58.63;100010.81;2446352;28;45326;-91
2022/04/08 05:01:39;;;;;;;;;2.00;1.50;;;;;11.98;58.65;100001.28;2440441;28;45319;-87
2022/04/08 05:02:50;;;;;;;;;1.75;0.75;;;;;11.99;58.72;99999.53;2448907;28;46388;-88
2022/04/08 05:04:00;;;;;;;;;0.50;0.50;;;;;11.98;59.18;99995.16;2444009;28;44764;-88
2022/04/08 05:05:11;;;;;;;;;1.00;1.00;;;;;12.00;59.04;100001.25;2443295;28;45336;-91
2022/04/08 05:06:21;;;;;;;;;4.00;0.50;;;;;11.99;58.79;99989.84;2450044;27;44602;-87
2022/04/08 05:07:32;;;;;;;;;0.50;0.50;;;;;11.98;58.96;99987.28;2440065;28;48218;-87
2022/04/08 05:08:42;;;;;;;;;2.00;1.00;;;;;11.97;59.63;99985.59;2440259;28;44676;-87
2022/04/08 05:09:52;;;;;;;;;3.50;1.25;;;;;11.99;59.20;99988.97;2443654;27;48028;-87
2022/04/08 05:11:03;;;;;;;;;2.25;1.25;;;;;11.96;59.03;99981.22;2457462;27;45206;-87
2022/04/08 05:12:13;;;;;;;;;1.75;0.25;;;;;11.96;59.22;99978.59;2449315;28;45256;-86
2022/04/08 05:13:24;;;;;;;;;0.50;0.50;;;;;11.96;59.49;99974.19;2450742;27;45254;-86
2022/04/08 05:14:35;;;;;;;;;1.25;0.50;;;;;11.94;59.54;99970.78;2442230;27;46284;-87
2022/04/08 05:15:45;;;;;;;;;3.25;2.00;;;;;11.94;59.50;99960.25;2442373;27;45172;-87
2022/04/08 05:16:58;;;;;;;;;2.50;0.50;;;;;11.92;59.61;99962.97;2457940;27;45238;-87
2022/04/08 05:18:09;;;;;;;;;2.50;1.50;;;;;11.94;59.54;99957.63;2441965;28;45500;-84
2022/04/08 05:19:19;;;;;;;;;2.75;2.00;;;;;11.94;59.55;99960.25;2440817;28;45401;-86
2022/04/08 05:20:29;;;;;;;;;4.25;1.50;;;;;11.92;59.81;99956.84;2440811;28;45273;-86
2022/04/08 05:21:40;;;;;;;;;2.75;1.50;;;;;11.91;59.91;99947.25;2440799;28;46275;-87
2022/04/08 05:22:50;;;;;;;;;1.50;1.50;;;;;11.91;59.63;99958.63;2441890;28;45436;-86
2022/04/08 05:24:01;;;;;;;;;1.75;1.50;;;;;11.91;59.77;99950.72;2444028;28;46328;-88
2022/04/08 05:25:11;;;;;;;;;2.75;1.50;;;;;11.91;59.80;99948.09;2449352;27;45294;-86
2022/04/08 05:26:21;;;;;;;;;4.00;1.50;;;;;11.91;59.74;99953.38;2445190;27;45326;-87
2022/04/08 05:27:39;;;;;;;;;7.25;2.25;;;;;11.90;59.94;99942.91;2447607;28;45442;-86
2022/04/08 05:28:49;;;;;;;;;2.75;2.00;;;;;11.89;59.88;99947.31;2447011;28;46203;-87
2022/04/08 05:30:04;;;;;;;;;3.75;1.00;;;;;11.89;60.23;99943.84;2448759;28;44759;-86